sensor_id;sensor_type;location;lat;lon;timestamp;P1;durP1;ratioP1;P2;durP2;ratioP2
38085;SDS011;23896;50.678;10.924;2022-07-23T00:01:38;6.35;;;5.75;;
38085;SDS011;23896;50.678;10.924;2022-07-23T00:04:06;5.82;;;4.47;;
38085;SDS011;23896;50.678;10.924;2022-07-23T00:06:33;4.95;;;4.20;;
38085;SDS011;23896;50.678;10.924;2022-07-23T00:08:59;7.22;;;4.18;;
38085;SDS011;23896;50.678;10.924;2022-07-23T00:11:26;4.72;;;3.92;;
38085;SDS011;23896;50.678;10.924;2022-07-23T00:13:52;5.65;;;3.58;;
38085;SDS011;23896;50.678;10.924;2022-07-23T00:16:20;7.82;;;3.40;;
38085;SDS011;23896;50.678;10.924;2022-07-23T00:18:46;6.32;;;3.63;;
38085;SDS011;23896;50.678;10.924;2022-07-23T00:21:13;4.15;;;3.03;;
38085;SDS011;23896;50.678;10.924;2022-07-23T00:23:40;3.25;;;3.00;;
38085;SDS011;23896;50.678;10.924;2022-07-23T00:26:06;3.13;;;2.83;;
38085;SDS011;23896;50.678;10.924;2022-07-23T00:28:33;4.10;;;3.25;;
38085;SDS011;23896;50.678;10.924;2022-07-23T00:31:01;6.63;;;3.05;;
38085;SDS011;23896;50.678;10.924;2022-07-23T00:33:27;4.20;;;3.05;;
38085;SDS011;23896;50.678;10.924;2022-07-23T00:35:54;5.85;;;3.28;;
38085;SDS011;23896;50.678;10.924;2022-07-23T00:38:21;5.45;;;3.08;;
38085;SDS011;23896;50.678;10.924;2022-07-23T00:40:48;3.22;;;2.92;;
38085;SDS011;23896;50.678;10.924;2022-07-23T00:43:14;6.07;;;3.25;;
38085;SDS011;23896;50.678;10.924;2022-07-23T00:45:41;3.35;;;3.05;;
38085;SDS011;23896;50.678;10.924;2022-07-23T00:48:07;3.70;;;3.40;;
38085;SDS011;23896;50.678;10.924;2022-07-23T00:50:34;5.80;;;3.03;;
38085;SDS011;23896;50.678;10.924;2022-07-23T00:53:00;3.35;;;2.80;;
38085;SDS011;23896;50.678;10.924;2022-07-23T00:55:27;5.30;;;3.65;;
38085;SDS011;23896;50.678;10.924;2022-07-23T00:57:54;4.53;;;3.25;;
38085;SDS011;23896;50.678;10.924;2022-07-23T01:00:21;3.35;;;3.03;;
38085;SDS011;23896;50.678;10.924;2022-07-23T01:02:48;4.45;;;3.63;;
38085;SDS011;23896;50.678;10.924;2022-07-23T01:05:16;4.78;;;4.35;;
38085;SDS011;23896;50.678;10.924;2022-07-23T01:07:50;4.00;;;3.60;;
38085;SDS011;23896;50.678;10.924;2022-07-23T01:10:18;5.05;;;3.22;;
38085;SDS011;23896;50.678;10.924;2022-07-23T01:13:07;6.30;;;3.03;;
38085;SDS011;23896;50.678;10.924;2022-07-23T01:15:34;9.68;;;3.15;;
38085;SDS011;23896;50.678;10.924;2022-07-23T01:18:01;4.20;;;3.42;;
38085;SDS011;23896;50.678;10.924;2022-07-23T01:20:28;5.18;;;3.28;;
38085;SDS011;23896;50.678;10.924;2022-07-23T01:22:55;6.45;;;3.50;;
38085;SDS011;23896;50.678;10.924;2022-07-23T01:25:25;5.97;;;3.42;;
38085;SDS011;23896;50.678;10.924;2022-07-23T01:27:52;3.80;;;3.47;;
38085;SDS011;23896;50.678;10.924;2022-07-23T01:30:19;5.38;;;3.17;;
38085;SDS011;23896;50.678;10.924;2022-07-23T01:32:45;4.00;;;3.60;;
38085;SDS011;23896;50.678;10.924;2022-07-23T01:35:12;4.43;;;2.95;;
38085;SDS011;23896;50.678;10.924;2022-07-23T01:37:39;4.95;;;3.90;;
38085;SDS011;23896;50.678;10.924;2022-07-23T01:40:06;7.93;;;4.30;;
38085;SDS011;23896;50.678;10.924;2022-07-23T01:42:36;5.50;;;3.58;;
38085;SDS011;23896;50.678;10.924;2022-07-23T01:45:03;5.85;;;4.07;;
38085;SDS011;23896;50.678;10.924;2022-07-23T01:47:30;11.07;;;3.55;;
38085;SDS011;23896;50.678;10.924;2022-07-23T01:50:00;13.38;;;3.63;;
38085;SDS011;23896;50.678;10.924;2022-07-23T01:52:27;8.65;;;3.80;;
38085;SDS011;23896;50.678;10.924;2022-07-23T01:54:53;3.58;;;3.28;;
38085;SDS011;23896;50.678;10.924;2022-07-23T01:57:19;9.55;;;5.40;;
38085;SDS011;23896;50.678;10.924;2022-07-23T01:59:46;3.90;;;3.47;;
38085;SDS011;23896;50.678;10.924;2022-07-23T02:02:12;4.03;;;3.72;;
38085;SDS011;23896;50.678;10.924;2022-07-23T02:04:39;5.88;;;4.05;;
38085;SDS011;23896;50.678;10.924;2022-07-23T02:07:06;6.55;;;4.10;;
38085;SDS011;23896;50.678;10.924;2022-07-23T02:09:32;7.68;;;4.28;;
38085;SDS011;23896;50.678;10.924;2022-07-23T02:12:00;6.80;;;3.83;;
38085;SDS011;23896;50.678;10.924;2022-07-23T02:14:26;4.72;;;4.18;;
38085;SDS011;23896;50.678;10.924;2022-07-23T02:16:53;4.55;;;4.15;;
38085;SDS011;23896;50.678;10.924;2022-07-23T02:19:19;10.25;;;4.70;;
38085;SDS011;23896;50.678;10.924;2022-07-23T02:21:46;4.78;;;4.32;;
38085;SDS011;23896;50.678;10.924;2022-07-23T02:24:12;5.00;;;4.60;;
38085;SDS011;23896;50.678;10.924;2022-07-23T02:26:39;6.30;;;4.93;;
38085;SDS011;23896;50.678;10.924;2022-07-23T02:29:06;8.82;;;4.30;;
38085;SDS011;23896;50.678;10.924;2022-07-23T02:31:33;5.93;;;4.68;;
38085;SDS011;23896;50.678;10.924;2022-07-23T02:33:59;5.70;;;5.10;;
38085;SDS011;23896;50.678;10.924;2022-07-23T02:36:27;5.32;;;4.82;;
38085;SDS011;23896;50.678;10.924;2022-07-23T02:38:54;5.80;;;5.22;;
38085;SDS011;23896;50.678;10.924;2022-07-23T02:41:21;6.60;;;5.55;;
38085;SDS011;23896;50.678;10.924;2022-07-23T02:43:48;6.25;;;5.65;;
38085;SDS011;23896;50.678;10.924;2022-07-23T02:46:17;6.05;;;5.55;;
38085;SDS011;23896;50.678;10.924;2022-07-23T02:48:43;7.25;;;5.68;;
38085;SDS011;23896;50.678;10.924;2022-07-23T02:51:10;5.78;;;5.18;;
38085;SDS011;23896;50.678;10.924;2022-07-23T02:53:36;6.10;;;5.47;;
38085;SDS011;23896;50.678;10.924;2022-07-23T02:56:03;7.30;;;5.68;;
38085;SDS011;23896;50.678;10.924;2022-07-23T02:58:29;5.82;;;5.28;;
38085;SDS011;23896;50.678;10.924;2022-07-23T03:00:59;8.15;;;5.68;;
38085;SDS011;23896;50.678;10.924;2022-07-23T03:03:27;7.53;;;5.63;;
38085;SDS011;23896;50.678;10.924;2022-07-23T03:05:53;10.82;;;6.07;;
38085;SDS011;23896;50.678;10.924;2022-07-23T03:08:20;9.52;;;7.50;;
38085;SDS011;23896;50.678;10.924;2022-07-23T03:10:46;8.52;;;6.32;;
38085;SDS011;23896;50.678;10.924;2022-07-23T03:13:12;8.10;;;6.97;;
38085;SDS011;23896;50.678;10.924;2022-07-23T03:15:39;9.57;;;7.28;;
38085;SDS011;23896;50.678;10.924;2022-07-23T03:18:05;7.85;;;7.10;;
38085;SDS011;23896;50.678;10.924;2022-07-23T03:20:39;8.80;;;7.28;;
38085;SDS011;23896;50.678;10.924;2022-07-23T03:23:05;10.13;;;7.43;;
38085;SDS011;23896;50.678;10.924;2022-07-23T03:25:32;7.80;;;7.10;;
38085;SDS011;23896;50.678;10.924;2022-07-23T03:27:58;8.85;;;7.43;;
38085;SDS011;23896;50.678;10.924;2022-07-23T03:30:25;10.70;;;7.22;;
38085;SDS011;23896;50.678;10.924;2022-07-23T03:32:51;9.23;;;8.30;;
38085;SDS011;23896;50.678;10.924;2022-07-23T03:35:18;8.07;;;7.07;;
38085;SDS011;23896;50.678;10.924;2022-07-23T03:37:47;9.55;;;8.57;;
38085;SDS011;23896;50.678;10.924;2022-07-23T03:40:16;12.15;;;8.20;;
38085;SDS011;23896;50.678;10.924;2022-07-23T03:42:43;9.07;;;8.15;;
38085;SDS011;23896;50.678;10.924;2022-07-23T03:45:13;11.45;;;7.97;;
38085;SDS011;23896;50.678;10.924;2022-07-23T03:47:39;8.95;;;7.97;;
38085;SDS011;23896;50.678;10.924;2022-07-23T03:50:06;10.60;;;8.55;;
38085;SDS011;23896;50.678;10.924;2022-07-23T03:52:33;10.63;;;7.95;;
38085;SDS011;23896;50.678;10.924;2022-07-23T03:55:03;11.38;;;8.85;;
38085;SDS011;23896;50.678;10.924;2022-07-23T03:57:29;9.07;;;8.27;;
38085;SDS011;23896;50.678;10.924;2022-07-23T03:59:56;9.23;;;8.35;;
38085;SDS011;23896;50.678;10.924;2022-07-23T04:02:23;11.02;;;8.85;;
38085;SDS011;23896;50.678;10.924;2022-07-23T04:04:50;11.10;;;8.15;;
38085;SDS011;23896;50.678;10.924;2022-07-23T04:07:16;8.68;;;7.63;;
38085;SDS011;23896;50.678;10.924;2022-07-23T04:09:43;9.43;;;8.40;;
38085;SDS011;23896;50.678;10.924;2022-07-23T04:12:13;12.57;;;8.55;;
38085;SDS011;23896;50.678;10.924;2022-07-23T04:14:40;9.20;;;8.30;;
38085;SDS011;23896;50.678;10.924;2022-07-23T04:17:06;13.13;;;10.68;;
38085;SDS011;23896;50.678;10.924;2022-07-23T04:19:33;10.82;;;9.50;;
38085;SDS011;23896;50.678;10.924;2022-07-23T04:22:01;12.63;;;8.45;;
38085;SDS011;23896;50.678;10.924;2022-07-23T04:24:27;10.10;;;9.10;;
38085;SDS011;23896;50.678;10.924;2022-07-23T04:26:54;9.88;;;8.88;;
38085;SDS011;23896;50.678;10.924;2022-07-23T04:29:21;11.70;;;8.93;;
38085;SDS011;23896;50.678;10.924;2022-07-23T04:31:47;8.90;;;8.07;;
38085;SDS011;23896;50.678;10.924;2022-07-23T04:34:14;11.35;;;9.55;;
38085;SDS011;23896;50.678;10.924;2022-07-23T04:36:40;9.38;;;8.48;;
38085;SDS011;23896;50.678;10.924;2022-07-23T04:39:08;11.68;;;7.40;;
38085;SDS011;23896;50.678;10.924;2022-07-23T04:41:35;10.35;;;8.50;;
38085;SDS011;23896;50.678;10.924;2022-07-23T04:44:01;11.43;;;7.85;;
38085;SDS011;23896;50.678;10.924;2022-07-23T04:46:28;11.85;;;9.60;;
38085;SDS011;23896;50.678;10.924;2022-07-23T04:48:55;9.48;;;8.50;;
38085;SDS011;23896;50.678;10.924;2022-07-23T04:51:21;10.00;;;8.65;;
38085;SDS011;23896;50.678;10.924;2022-07-23T04:53:47;9.38;;;8.48;;
38085;SDS011;23896;50.678;10.924;2022-07-23T04:56:14;12.45;;;9.65;;
38085;SDS011;23896;50.678;10.924;2022-07-23T04:58:41;11.45;;;9.02;;
38085;SDS011;23896;50.678;10.924;2022-07-23T05:01:08;13.98;;;9.10;;
38085;SDS011;23896;50.678;10.924;2022-07-23T05:03:34;11.63;;;8.10;;
38085;SDS011;23896;50.678;10.924;2022-07-23T05:06:01;10.20;;;9.20;;
38085;SDS011;23896;50.678;10.924;2022-07-23T05:08:28;10.80;;;9.35;;
38085;SDS011;23896;50.678;10.924;2022-07-23T05:10:54;10.55;;;9.30;;
38085;SDS011;23896;50.678;10.924;2022-07-23T05:13:21;10.23;;;8.70;;
38085;SDS011;23896;50.678;10.924;2022-07-23T05:15:47;11.65;;;8.90;;
38085;SDS011;23896;50.678;10.924;2022-07-23T05:18:15;10.82;;;8.68;;
38085;SDS011;23896;50.678;10.924;2022-07-23T05:20:42;9.18;;;8.27;;
38085;SDS011;23896;50.678;10.924;2022-07-23T05:23:08;9.65;;;8.70;;
38085;SDS011;23896;50.678;10.924;2022-07-23T05:25:39;9.32;;;8.40;;
38085;SDS011;23896;50.678;10.924;2022-07-23T05:28:06;9.65;;;8.60;;
38085;SDS011;23896;50.678;10.924;2022-07-23T05:30:32;9.35;;;8.55;;
38085;SDS011;23896;50.678;10.924;2022-07-23T05:32:59;9.38;;;8.25;;
38085;SDS011;23896;50.678;10.924;2022-07-23T05:35:25;10.45;;;8.40;;
38085;SDS011;23896;50.678;10.924;2022-07-23T05:37:53;11.23;;;8.45;;
38085;SDS011;23896;50.678;10.924;2022-07-23T05:40:20;11.45;;;8.75;;
38085;SDS011;23896;50.678;10.924;2022-07-23T05:42:46;12.10;;;9.38;;
38085;SDS011;23896;50.678;10.924;2022-07-23T05:45:12;12.95;;;9.20;;
38085;SDS011;23896;50.678;10.924;2022-07-23T05:47:40;12.73;;;9.30;;
38085;SDS011;23896;50.678;10.924;2022-07-23T05:50:06;11.55;;;9.20;;
38085;SDS011;23896;50.678;10.924;2022-07-23T05:52:36;11.35;;;10.10;;
38085;SDS011;23896;50.678;10.924;2022-07-23T05:55:07;12.27;;;9.35;;
38085;SDS011;23896;50.678;10.924;2022-07-23T05:57:34;10.82;;;9.10;;
38085;SDS011;23896;50.678;10.924;2022-07-23T06:00:00;10.40;;;8.93;;
38085;SDS011;23896;50.678;10.924;2022-07-23T06:02:27;10.57;;;9.43;;
38085;SDS011;23896;50.678;10.924;2022-07-23T06:04:53;10.65;;;9.00;;
38085;SDS011;23896;50.678;10.924;2022-07-23T06:07:20;15.15;;;8.90;;
38085;SDS011;23896;50.678;10.924;2022-07-23T06:09:52;9.60;;;8.68;;
38085;SDS011;23896;50.678;10.924;2022-07-23T06:12:19;9.45;;;8.57;;
38085;SDS011;23896;50.678;10.924;2022-07-23T06:14:45;11.55;;;9.40;;
38085;SDS011;23896;50.678;10.924;2022-07-23T06:17:13;9.10;;;8.20;;
38085;SDS011;23896;50.678;10.924;2022-07-23T06:19:40;9.43;;;8.52;;
38085;SDS011;23896;50.678;10.924;2022-07-23T06:22:06;17.08;;;9.10;;
38085;SDS011;23896;50.678;10.924;2022-07-23T06:27:32;9.82;;;8.93;;
38085;SDS011;23896;50.678;10.924;2022-07-23T06:30:02;9.38;;;8.48;;
38085;SDS011;23896;50.678;10.924;2022-07-23T06:32:29;9.00;;;8.18;;
38085;SDS011;23896;50.678;10.924;2022-07-23T06:34:55;9.18;;;8.25;;
38085;SDS011;23896;50.678;10.924;2022-07-23T06:37:22;10.98;;;8.77;;
38085;SDS011;23896;50.678;10.924;2022-07-23T06:39:48;11.05;;;9.55;;
38085;SDS011;23896;50.678;10.924;2022-07-23T06:42:15;10.13;;;9.07;;
38085;SDS011;23896;50.678;10.924;2022-07-23T06:44:41;9.35;;;7.65;;
38085;SDS011;23896;50.678;10.924;2022-07-23T06:47:10;21.58;;;19.23;;
38085;SDS011;23896;50.678;10.924;2022-07-23T06:49:36;14.43;;;12.90;;
38085;SDS011;23896;50.678;10.924;2022-07-23T06:52:03;11.70;;;10.70;;
38085;SDS011;23896;50.678;10.924;2022-07-23T06:54:30;11.82;;;9.52;;
38085;SDS011;23896;50.678;10.924;2022-07-23T06:56:56;11.70;;;10.60;;
38085;SDS011;23896;50.678;10.924;2022-07-23T06:59:23;11.07;;;10.07;;
38085;SDS011;23896;50.678;10.924;2022-07-23T07:01:51;11.48;;;10.43;;
38085;SDS011;23896;50.678;10.924;2022-07-23T07:04:18;11.57;;;10.23;;
38085;SDS011;23896;50.678;10.924;2022-07-23T07:06:44;11.40;;;10.38;;
38085;SDS011;23896;50.678;10.924;2022-07-23T07:09:11;11.18;;;10.25;;
38085;SDS011;23896;50.678;10.924;2022-07-23T07:11:38;13.32;;;9.15;;
38085;SDS011;23896;50.678;10.924;2022-07-23T07:14:04;10.80;;;9.65;;
38085;SDS011;23896;50.678;10.924;2022-07-23T07:16:31;10.30;;;9.27;;
38085;SDS011;23896;50.678;10.924;2022-07-23T07:18:59;14.23;;;10.30;;
38085;SDS011;23896;50.678;10.924;2022-07-23T07:21:25;12.57;;;9.80;;
38085;SDS011;23896;50.678;10.924;2022-07-23T07:23:52;11.00;;;9.93;;
38085;SDS011;23896;50.678;10.924;2022-07-23T07:26:20;12.30;;;9.90;;
38085;SDS011;23896;50.678;10.924;2022-07-23T07:28:46;11.68;;;9.38;;
38085;SDS011;23896;50.678;10.924;2022-07-23T07:31:13;10.98;;;9.88;;
38085;SDS011;23896;50.678;10.924;2022-07-23T07:33:39;12.80;;;11.60;;
38085;SDS011;23896;50.678;10.924;2022-07-23T07:36:08;14.90;;;13.40;;
38085;SDS011;23896;50.678;10.924;2022-07-23T07:38:35;11.32;;;10.00;;
38085;SDS011;23896;50.678;10.924;2022-07-23T07:41:02;11.55;;;10.48;;
38085;SDS011;23896;50.678;10.924;2022-07-23T07:43:33;10.75;;;9.75;;
38085;SDS011;23896;50.678;10.924;2022-07-23T07:46:00;10.57;;;9.57;;
38085;SDS011;23896;50.678;10.924;2022-07-23T07:48:26;10.90;;;9.80;;
38085;SDS011;23896;50.678;10.924;2022-07-23T07:50:52;10.95;;;9.60;;
38085;SDS011;23896;50.678;10.924;2022-07-23T07:53:19;9.88;;;8.88;;
38085;SDS011;23896;50.678;10.924;2022-07-23T07:55:45;12.73;;;10.40;;
38085;SDS011;23896;50.678;10.924;2022-07-23T07:58:12;9.15;;;8.35;;
38085;SDS011;23896;50.678;10.924;2022-07-23T08:00:38;10.20;;;8.90;;
38085;SDS011;23896;50.678;10.924;2022-07-23T08:03:05;10.57;;;8.88;;
38085;SDS011;23896;50.678;10.924;2022-07-23T08:05:31;9.50;;;8.23;;
38085;SDS011;23896;50.678;10.924;2022-07-23T08:07:58;12.75;;;8.85;;
38085;SDS011;23896;50.678;10.924;2022-07-23T08:10:25;9.40;;;8.60;;
38085;SDS011;23896;50.678;10.924;2022-07-23T08:12:57;10.10;;;8.35;;
38085;SDS011;23896;50.678;10.924;2022-07-23T08:15:26;9.15;;;8.32;;
38085;SDS011;23896;50.678;10.924;2022-07-23T08:17:53;8.88;;;8.02;;
38085;SDS011;23896;50.678;10.924;2022-07-23T08:20:20;10.98;;;8.90;;
38085;SDS011;23896;50.678;10.924;2022-07-23T08:22:54;9.82;;;8.68;;
38085;SDS011;23896;50.678;10.924;2022-07-23T08:25:22;9.80;;;8.80;;
38085;SDS011;23896;50.678;10.924;2022-07-23T08:27:49;9.40;;;8.48;;
38085;SDS011;23896;50.678;10.924;2022-07-23T08:30:25;9.27;;;8.40;;
38085;SDS011;23896;50.678;10.924;2022-07-23T08:32:56;9.05;;;8.15;;
38085;SDS011;23896;50.678;10.924;2022-07-23T08:35:24;9.85;;;8.15;;
38085;SDS011;23896;50.678;10.924;2022-07-23T08:37:50;10.60;;;8.27;;
38085;SDS011;23896;50.678;10.924;2022-07-23T08:40:17;10.68;;;9.68;;
38085;SDS011;23896;50.678;10.924;2022-07-23T08:42:44;12.48;;;10.20;;
38085;SDS011;23896;50.678;10.924;2022-07-23T08:45:24;11.35;;;10.27;;
38085;SDS011;23896;50.678;10.924;2022-07-23T08:47:52;12.88;;;10.02;;
38085;SDS011;23896;50.678;10.924;2022-07-23T08:50:18;11.57;;;9.70;;
38085;SDS011;23896;50.678;10.924;2022-07-23T08:52:45;10.18;;;9.38;;
38085;SDS011;23896;50.678;10.924;2022-07-23T08:55:22;13.23;;;10.65;;
38085;SDS011;23896;50.678;10.924;2022-07-23T08:57:50;10.20;;;9.40;;
38085;SDS011;23896;50.678;10.924;2022-07-23T09:00:17;10.68;;;9.75;;
38085;SDS011;23896;50.678;10.924;2022-07-23T09:02:45;10.30;;;9.13;;
38085;SDS011;23896;50.678;10.924;2022-07-23T09:05:15;9.98;;;8.98;;
38085;SDS011;23896;50.678;10.924;2022-07-23T09:10:27;10.02;;;9.13;;
38085;SDS011;23896;50.678;10.924;2022-07-23T09:12:53;10.50;;;9.43;;
38085;SDS011;23896;50.678;10.924;2022-07-23T09:15:19;10.60;;;9.40;;
38085;SDS011;23896;50.678;10.924;2022-07-23T09:17:48;13.27;;;8.95;;
38085;SDS011;23896;50.678;10.924;2022-07-23T09:20:16;20.52;;;17.85;;
38085;SDS011;23896;50.678;10.924;2022-07-23T09:22:46;11.68;;;10.48;;
38085;SDS011;23896;50.678;10.924;2022-07-23T09:25:15;11.90;;;9.73;;
38085;SDS011;23896;50.678;10.924;2022-07-23T09:30:12;13.15;;;11.30;;
38085;SDS011;23896;50.678;10.924;2022-07-23T09:32:40;11.50;;;10.40;;
38085;SDS011;23896;50.678;10.924;2022-07-23T09:35:10;10.50;;;8.65;;
38085;SDS011;23896;50.678;10.924;2022-07-23T09:37:37;10.35;;;9.05;;
38085;SDS011;23896;50.678;10.924;2022-07-23T09:40:09;12.52;;;10.98;;
38085;SDS011;23896;50.678;10.924;2022-07-23T09:42:41;15.40;;;13.30;;
38085;SDS011;23896;50.678;10.924;2022-07-23T09:45:20;14.98;;;13.43;;
38085;SDS011;23896;50.678;10.924;2022-07-23T09:47:47;14.68;;;13.30;;
38085;SDS011;23896;50.678;10.924;2022-07-23T09:50:13;18.75;;;15.05;;
38085;SDS011;23896;50.678;10.924;2022-07-23T09:55:09;17.10;;;15.32;;
38085;SDS011;23896;50.678;10.924;2022-07-23T09:57:36;16.30;;;14.65;;
38085;SDS011;23896;50.678;10.924;2022-07-23T10:00:08;18.60;;;16.25;;
38085;SDS011;23896;50.678;10.924;2022-07-23T10:02:36;16.88;;;15.13;;
38085;SDS011;23896;50.678;10.924;2022-07-23T10:05:02;17.17;;;15.43;;
38085;SDS011;23896;50.678;10.924;2022-07-23T10:07:34;18.20;;;16.30;;
38085;SDS011;23896;50.678;10.924;2022-07-23T10:10:02;18.27;;;16.60;;
38085;SDS011;23896;50.678;10.924;2022-07-23T10:12:29;18.67;;;16.85;;
38085;SDS011;23896;50.678;10.924;2022-07-23T10:15:02;20.10;;;17.88;;
38085;SDS011;23896;50.678;10.924;2022-07-23T10:17:33;18.73;;;16.83;;
38085;SDS011;23896;50.678;10.924;2022-07-23T10:19:59;20.73;;;18.58;;
38085;SDS011;23896;50.678;10.924;2022-07-23T10:22:27;23.10;;;18.75;;
38085;SDS011;23896;50.678;10.924;2022-07-23T10:38:07;20.55;;;18.35;;
38085;SDS011;23896;50.678;10.924;2022-07-23T10:43:03;20.35;;;18.27;;
38085;SDS011;23896;50.678;10.924;2022-07-23T10:45:39;21.92;;;19.63;;
38085;SDS011;23896;50.678;10.924;2022-07-23T10:48:15;23.83;;;21.45;;
38085;SDS011;23896;50.678;10.924;2022-07-23T10:50:42;23.15;;;18.42;;
38085;SDS011;23896;50.678;10.924;2022-07-23T10:53:10;22.58;;;20.17;;
38085;SDS011;23896;50.678;10.924;2022-07-23T10:55:48;21.45;;;19.38;;
38085;SDS011;23896;50.678;10.924;2022-07-23T10:58:19;21.17;;;19.08;;
38085;SDS011;23896;50.678;10.924;2022-07-23T11:00:46;23.52;;;21.02;;
38085;SDS011;23896;50.678;10.924;2022-07-23T11:03:29;23.95;;;21.15;;
38085;SDS011;23896;50.678;10.924;2022-07-23T11:05:57;23.00;;;20.73;;
38085;SDS011;23896;50.678;10.924;2022-07-23T11:08:24;23.50;;;21.00;;
38085;SDS011;23896;50.678;10.924;2022-07-23T11:22:06;20.42;;;18.35;;
38085;SDS011;23896;50.678;10.924;2022-07-23T11:24:05;20.38;;;18.38;;
38085;SDS011;23896;50.678;10.924;2022-07-23T11:32:04;17.98;;;16.27;;
38085;SDS011;23896;50.678;10.924;2022-07-23T11:34:32;19.17;;;17.00;;
38085;SDS011;23896;50.678;10.924;2022-07-23T11:36:59;17.25;;;15.13;;
38085;SDS011;23896;50.678;10.924;2022-07-23T11:39:28;17.52;;;15.68;;
38085;SDS011;23896;50.678;10.924;2022-07-23T11:41:55;17.58;;;15.73;;
38085;SDS011;23896;50.678;10.924;2022-07-23T11:44:28;16.05;;;14.60;;
38085;SDS011;23896;50.678;10.924;2022-07-23T11:46:56;16.67;;;15.18;;
38085;SDS011;23896;50.678;10.924;2022-07-23T11:49:25;15.98;;;13.60;;
38085;SDS011;23896;50.678;10.924;2022-07-23T11:54:31;13.85;;;12.73;;
38085;SDS011;23896;50.678;10.924;2022-07-23T11:56:58;13.05;;;11.85;;
38085;SDS011;23896;50.678;10.924;2022-07-23T11:59:30;14.38;;;12.32;;
38085;SDS011;23896;50.678;10.924;2022-07-23T12:02:01;12.60;;;11.40;;
38085;SDS011;23896;50.678;10.924;2022-07-23T12:04:43;12.48;;;11.25;;
38085;SDS011;23896;50.678;10.924;2022-07-23T12:09:55;11.23;;;10.23;;
38085;SDS011;23896;50.678;10.924;2022-07-23T12:12:22;9.57;;;8.68;;
38085;SDS011;23896;50.678;10.924;2022-07-23T12:14:55;10.95;;;9.88;;
38085;SDS011;23896;50.678;10.924;2022-07-23T12:17:26;10.37;;;9.47;;
38085;SDS011;23896;50.678;10.924;2022-07-23T12:19:57;9.30;;;8.40;;
38085;SDS011;23896;50.678;10.924;2022-07-23T12:22:34;8.50;;;7.72;;
38085;SDS011;23896;50.678;10.924;2022-07-23T12:25:03;10.40;;;9.50;;
38085;SDS011;23896;50.678;10.924;2022-07-23T12:27:31;10.38;;;9.38;;
38085;SDS011;23896;50.678;10.924;2022-07-23T12:30:41;9.35;;;8.52;;
38085;SDS011;23896;50.678;10.924;2022-07-23T12:32:48;9.23;;;8.32;;
38085;SDS011;23896;50.678;10.924;2022-07-23T12:35:21;8.02;;;7.22;;
38085;SDS011;23896;50.678;10.924;2022-07-23T12:37:49;9.55;;;8.55;;
38085;SDS011;23896;50.678;10.924;2022-07-23T12:40:34;9.60;;;8.68;;
38085;SDS011;23896;50.678;10.924;2022-07-23T12:43:05;8.63;;;7.82;;
38085;SDS011;23896;50.678;10.924;2022-07-23T12:45:45;8.93;;;8.23;;
38085;SDS011;23896;50.678;10.924;2022-07-23T12:48:18;9.43;;;8.30;;
38085;SDS011;23896;50.678;10.924;2022-07-23T12:53:18;9.63;;;8.77;;
38085;SDS011;23896;50.678;10.924;2022-07-23T12:55:48;16.60;;;8.65;;
38085;SDS011;23896;50.678;10.924;2022-07-23T12:58:16;9.18;;;8.32;;
38085;SDS011;23896;50.678;10.924;2022-07-23T13:00:50;9.23;;;8.18;;
38085;SDS011;23896;50.678;10.924;2022-07-23T13:03:23;8.48;;;7.68;;
38085;SDS011;23896;50.678;10.924;2022-07-23T13:05:50;9.63;;;8.80;;
38085;SDS011;23896;50.678;10.924;2022-07-23T13:08:18;10.73;;;9.73;;
38085;SDS011;23896;50.678;10.924;2022-07-23T13:10:45;9.05;;;8.20;;
38085;SDS011;23896;50.678;10.924;2022-07-23T13:13:14;9.52;;;8.70;;
38085;SDS011;23896;50.678;10.924;2022-07-23T13:15:41;22.50;;;16.42;;
38085;SDS011;23896;50.678;10.924;2022-07-23T13:18:09;8.73;;;7.93;;
38085;SDS011;23896;50.678;10.924;2022-07-23T13:20:35;9.77;;;8.77;;
38085;SDS011;23896;50.678;10.924;2022-07-23T13:23:04;9.55;;;8.70;;
38085;SDS011;23896;50.678;10.924;2022-07-23T13:25:38;10.90;;;8.60;;
38085;SDS011;23896;50.678;10.924;2022-07-23T13:28:05;9.15;;;8.35;;
38085;SDS011;23896;50.678;10.924;2022-07-23T13:30:31;8.23;;;7.63;;
38085;SDS011;23896;50.678;10.924;2022-07-23T13:32:58;8.85;;;7.97;;
38085;SDS011;23896;50.678;10.924;2022-07-23T13:35:25;10.00;;;8.13;;
38085;SDS011;23896;50.678;10.924;2022-07-23T13:37:51;11.77;;;8.80;;
38085;SDS011;23896;50.678;10.924;2022-07-23T13:40:18;7.82;;;7.03;;
38085;SDS011;23896;50.678;10.924;2022-07-23T13:42:45;8.50;;;7.70;;
38085;SDS011;23896;50.678;10.924;2022-07-23T13:45:12;8.50;;;7.80;;
38085;SDS011;23896;50.678;10.924;2022-07-23T13:47:38;8.50;;;7.70;;
38085;SDS011;23896;50.678;10.924;2022-07-23T13:50:08;9.45;;;7.63;;
38085;SDS011;23896;50.678;10.924;2022-07-23T13:52:42;7.75;;;7.00;;
38085;SDS011;23896;50.678;10.924;2022-07-23T13:55:08;7.55;;;6.93;;
38085;SDS011;23896;50.678;10.924;2022-07-23T13:57:35;7.47;;;6.72;;
38085;SDS011;23896;50.678;10.924;2022-07-23T14:00:03;8.77;;;7.97;;
38085;SDS011;23896;50.678;10.924;2022-07-23T14:02:29;7.45;;;6.72;;
38085;SDS011;23896;50.678;10.924;2022-07-23T14:04:56;9.10;;;7.22;;
38085;SDS011;23896;50.678;10.924;2022-07-23T14:07:22;11.27;;;10.10;;
38085;SDS011;23896;50.678;10.924;2022-07-23T14:09:49;7.40;;;6.68;;
38085;SDS011;23896;50.678;10.924;2022-07-23T14:12:16;7.32;;;6.70;;
38085;SDS011;23896;50.678;10.924;2022-07-23T14:14:42;6.60;;;6.10;;
38085;SDS011;23896;50.678;10.924;2022-07-23T14:17:08;6.32;;;5.82;;
38085;SDS011;23896;50.678;10.924;2022-07-23T14:19:36;6.38;;;5.93;;
38085;SDS011;23896;50.678;10.924;2022-07-23T14:22:03;6.70;;;6.03;;
38085;SDS011;23896;50.678;10.924;2022-07-23T14:24:29;5.75;;;5.35;;
38085;SDS011;23896;50.678;10.924;2022-07-23T14:26:56;6.93;;;5.22;;
38085;SDS011;23896;50.678;10.924;2022-07-23T14:29:23;5.80;;;5.25;;
38085;SDS011;23896;50.678;10.924;2022-07-23T14:31:50;7.72;;;5.65;;
38085;SDS011;23896;50.678;10.924;2022-07-23T14:34:16;6.22;;;5.63;;
38085;SDS011;23896;50.678;10.924;2022-07-23T14:36:43;5.90;;;5.35;;
38085;SDS011;23896;50.678;10.924;2022-07-23T14:39:10;5.45;;;5.10;;
38085;SDS011;23896;50.678;10.924;2022-07-23T14:41:40;6.35;;;5.82;;
38085;SDS011;23896;50.678;10.924;2022-07-23T14:44:07;5.70;;;5.30;;
38085;SDS011;23896;50.678;10.924;2022-07-23T14:46:34;5.97;;;5.40;;
38085;SDS011;23896;50.678;10.924;2022-07-23T14:49:00;5.60;;;5.10;;
38085;SDS011;23896;50.678;10.924;2022-07-23T14:51:26;5.05;;;4.65;;
38085;SDS011;23896;50.678;10.924;2022-07-23T14:53:53;5.82;;;5.32;;
38085;SDS011;23896;50.678;10.924;2022-07-23T14:56:21;6.00;;;4.75;;
38085;SDS011;23896;50.678;10.924;2022-07-23T14:58:50;5.55;;;5.03;;
38085;SDS011;23896;50.678;10.924;2022-07-23T15:01:17;5.18;;;4.78;;
38085;SDS011;23896;50.678;10.924;2022-07-23T15:03:43;5.85;;;5.28;;
38085;SDS011;23896;50.678;10.924;2022-07-23T15:06:10;5.88;;;5.45;;
38085;SDS011;23896;50.678;10.924;2022-07-23T15:08:37;6.65;;;5.28;;
38085;SDS011;23896;50.678;10.924;2022-07-23T15:11:03;6.97;;;5.10;;
38085;SDS011;23896;50.678;10.924;2022-07-23T15:13:30;5.80;;;4.47;;
38085;SDS011;23896;50.678;10.924;2022-07-23T15:15:58;5.50;;;5.07;;
38085;SDS011;23896;50.678;10.924;2022-07-23T15:18:25;5.57;;;5.13;;
38085;SDS011;23896;50.678;10.924;2022-07-23T15:20:51;5.63;;;4.38;;